CheckWX is a tool to help pilots better visualize weather data.  It is not intended as a substitute for an official pre-flight weather briefing.

03:11:23 UTC

KECG METAR
Elizabeth City CG Air Station / Rgnl Airport
Elizabeth City, North Carolina, USA
Current

17 mins ago

KECG 240254Z 00000KT 10SM CLR 08/M03 A3028 RMK AO2 SLP254 T00831033 51024
Observed
Mar-24 @ 02:54 UTC
Visibility
10 SM
Flight Rules
VFR
Cloud Levels
  • Clear skies
Temperature
C / 46°F
Dewpoint
-3°C / 27°F
Humidity
46%
Altimeter
30.28" Hg
Pressure
1025.4 hPa
Previous

1 hour ago

KECG 240154Z 25006KT 10SM CLR 06/M03 A3027 RMK AO2 SLP248 T00611033
Observed
Mar-24 @ 01:54 UTC
Wind
  • 250° at 6 KTS
Visibility
10 SM
Flight Rules
VFR
Cloud Levels
  • Clear skies
Temperature
C / 43°F
Dewpoint
-3°C / 27°F
Humidity
53%
Altimeter
30.27" Hg
Pressure
1024.8 hPa
Previous

2 hours ago

KECG 240054Z 28004KT 10SM CLR 06/M02 A3024 RMK AO2 SLP239 T00611017
Observed
Mar-24 @ 00:54 UTC
Wind
  • 280° at 4 KTS
Visibility
10 SM
Flight Rules
VFR
Cloud Levels
  • Clear skies
Temperature
C / 43°F
Dewpoint
-2°C / 28°F
Humidity
57%
Altimeter
30.24" Hg
Pressure
1023.9 hPa